Islandská krása na dosah. Dopravce Icelandair nabídne z Prahy přímé lety do Keflavíku

09.11.22 Nejseverněji položená metropole na světě, město památek a tajemných koutů. Reykjavík je vstupní bránou do nádherné islandské krajiny plné vodopádů, vodních gejzírů, jezírek s teplou i horkou vodou obklopené sněhem, ledovcových plání, kamenité pouště a doutnajících sopek. Celý článek

Eurowings slaví první výročí své základny v Praze

03.11.22 Německá letecká společnost Eurowings slaví první rok své základny na pražském letišti, během kterého přepravila bezmála půl milionu cestujících. V rámci letního letového řádu létala společnost do 19 pravidelných destinací, v současném zimním letovém řádu pak Eurowings operuje do 12 destinací. Celý článek

Zprávy

aktualizováno

26.11.22 Celý článek

Všechny zprávy    

Všechny články

Zeptejte se odborníka

Zkušený personál jedné z největších leteckých škol Flying Academy je připraven Vám pomoci s jakýmikoli otázkami týkajícími se letectví.

Zeptejte se

Newsletter

Přihlaste se k odběru novinek.

Aktuální počasí

LKKB
LKKB 261300Z 28008KT 9999 BKN040 09/03 Q1028 NOSIG

LKKV
LKKV 261300Z 30006KT 9999 BKN020 06/01 Q1028

LKMT
LKMT 261300Z 20006KT 4500 BR SCT022 BKN040 06/05 Q1027 NOSIG

LKPR
LKPR 261300Z 31009KT 9999 SCT025 BKN042 08/03 Q1028 NOSIG

LKTB
LKTB 261300Z 30011KT 9999 FEW026 BKN041 09/05 Q1027 NOSIG

Briefing

Kurzy měn

AUD AUD 16.03 Kč
EUR EUR 24.55 Kč
GBP GBP 28.12 Kč
HUF HUF 5.88 Kč
CHF CHF 25.13 Kč
USD USD 24.82 Kč